sensor_id;sensor_type;location;lat;lon;timestamp;pressure;altitude;pressure_sealevel;temperature;humidity
80927;BME280;70385;44.538;18.532;2023-12-28T00:01:10;100364.03;;;-0.77;100.00
80927;BME280;70385;44.538;18.532;2023-12-28T00:03:37;100351.78;;;-0.92;100.00
80927;BME280;70385;44.538;18.532;2023-12-28T00:06:06;100356.00;;;-0.94;100.00
80927;BME280;70385;44.538;18.532;2023-12-28T00:08:32;100359.44;;;-0.95;100.00
80927;BME280;70385;44.538;18.532;2023-12-28T00:10:58;100356.72;;;-1.01;100.00
80927;BME280;70385;44.538;18.532;2023-12-28T00:13:24;100353.22;;;-1.06;100.00
80927;BME280;70385;44.538;18.532;2023-12-28T00:15:50;100358.28;;;-1.10;100.00
80927;BME280;70385;44.538;18.532;2023-12-28T00:18:18;100361.88;;;-1.01;100.00
80927;BME280;70385;44.538;18.532;2023-12-28T00:20:47;100360.13;;;-1.02;100.00
80927;BME280;70385;44.538;18.532;2023-12-28T00:23:14;100358.47;;;-1.00;100.00
80927;BME280;70385;44.538;18.532;2023-12-28T00:25:41;100357.75;;;-0.93;100.00
80927;BME280;70385;44.538;18.532;2023-12-28T00:28:09;100363.78;;;-0.90;100.00
80927;BME280;70385;44.538;18.532;2023-12-28T00:30:39;100365.53;;;-0.88;100.00
80927;BME280;70385;44.538;18.532;2023-12-28T00:33:06;100362.34;;;-0.73;100.00
80927;BME280;70385;44.538;18.532;2023-12-28T00:35:33;100356.41;;;-0.71;100.00
80927;BME280;70385;44.538;18.532;2023-12-28T00:38:00;100372.72;;;-0.67;100.00
80927;BME280;70385;44.538;18.532;2023-12-28T00:40:27;100362.25;;;-0.78;100.00
80927;BME280;70385;44.538;18.532;2023-12-28T00:42:54;100360.47;;;-0.82;100.00
80927;BME280;70385;44.538;18.532;2023-12-28T00:45:21;100364.13;;;-0.69;100.00
80927;BME280;70385;44.538;18.532;2023-12-28T00:47:51;100362.31;;;-0.76;100.00
80927;BME280;70385;44.538;18.532;2023-12-28T00:50:18;100369.22;;;-0.72;100.00
80927;BME280;70385;44.538;18.532;2023-12-28T00:52:47;100375.97;;;-0.77;100.00
80927;BME280;70385;44.538;18.532;2023-12-28T00:55:16;100368.94;;;-0.89;100.00
80927;BME280;70385;44.538;18.532;2023-12-28T00:57:45;100369.94;;;-0.79;100.00
80927;BME280;70385;44.538;18.532;2023-12-28T01:00:12;100360.53;;;-0.79;100.00
80927;BME280;70385;44.538;18.532;2023-12-28T01:02:38;100361.22;;;-0.89;100.00
80927;BME280;70385;44.538;18.532;2023-12-28T01:05:04;100354.19;;;-0.99;100.00
80927;BME280;70385;44.538;18.532;2023-12-28T01:07:30;100358.34;;;-1.06;100.00
80927;BME280;70385;44.538;18.532;2023-12-28T01:10:02;100362.59;;;-1.09;100.00
80927;BME280;70385;44.538;18.532;2023-12-28T01:12:28;100360.81;;;-1.12;100.00
80927;BME280;70385;44.538;18.532;2023-12-28T01:14:56;100365.84;;;-1.16;100.00
80927;BME280;70385;44.538;18.532;2023-12-28T01:17:23;100356.31;;;-1.24;100.00
80927;BME280;70385;44.538;18.532;2023-12-28T01:19:52;100363.25;;;-1.18;100.00
80927;BME280;70385;44.538;18.532;2023-12-28T01:22:20;100358.06;;;-1.21;100.00
80927;BME280;70385;44.538;18.532;2023-12-28T01:24:47;100353.72;;;-1.25;100.00
80927;BME280;70385;44.538;18.532;2023-12-28T01:27:17;100357.97;;;-1.27;100.00
80927;BME280;70385;44.538;18.532;2023-12-28T01:29:43;100364.72;;;-1.32;100.00
80927;BME280;70385;44.538;18.532;2023-12-28T01:32:10;100365.44;;;-1.38;100.00
80927;BME280;70385;44.538;18.532;2023-12-28T01:34:37;100364.56;;;-1.40;100.00
80927;BME280;70385;44.538;18.532;2023-12-28T01:37:03;100344.19;;;-1.32;100.00
80927;BME280;70385;44.538;18.532;2023-12-28T01:39:29;100350.84;;;-1.40;100.00
80927;BME280;70385;44.538;18.532;2023-12-28T01:41:55;100355.44;;;-1.24;100.00
80927;BME280;70385;44.538;18.532;2023-12-28T01:44:22;100352.09;;;-1.20;100.00
80927;BME280;70385;44.538;18.532;2023-12-28T01:46:48;100359.81;;;-1.20;100.00
80927;BME280;70385;44.538;18.532;2023-12-28T01:49:16;100349.22;;;-1.35;100.00
80927;BME280;70385;44.538;18.532;2023-12-28T01:51:42;100343.06;;;-1.46;100.00
80927;BME280;70385;44.538;18.532;2023-12-28T01:54:11;100347.91;;;-1.60;100.00
80927;BME280;70385;44.538;18.532;2023-12-28T01:56:37;100355.75;;;-1.54;100.00
80927;BME280;70385;44.538;18.532;2023-12-28T01:59:06;100341.06;;;-1.60;100.00
80927;BME280;70385;44.538;18.532;2023-12-28T02:01:35;100339.31;;;-1.62;100.00
80927;BME280;70385;44.538;18.532;2023-12-28T02:04:03;100351.31;;;-1.61;100.00
80927;BME280;70385;44.538;18.532;2023-12-28T02:06:29;100348.72;;;-1.63;100.00
80927;BME280;70385;44.538;18.532;2023-12-28T02:08:56;100338.50;;;-1.60;100.00
80927;BME280;70385;44.538;18.532;2023-12-28T02:11:22;100353.13;;;-1.56;100.00
80927;BME280;70385;44.538;18.532;2023-12-28T02:13:48;100347.25;;;-1.51;100.00
80927;BME280;70385;44.538;18.532;2023-12-28T02:16:27;100337.16;;;-1.41;100.00
80927;BME280;70385;44.538;18.532;2023-12-28T02:18:57;100351.00;;;-1.34;100.00
80927;BME280;70385;44.538;18.532;2023-12-28T02:21:27;100349.31;;;-1.32;100.00
80927;BME280;70385;44.538;18.532;2023-12-28T02:23:54;100344.09;;;-1.35;100.00
80927;BME280;70385;44.538;18.532;2023-12-28T02:26:26;100330.56;;;-1.28;100.00
80927;BME280;70385;44.538;18.532;2023-12-28T02:28:54;100330.56;;;-1.28;100.00
80927;BME280;70385;44.538;18.532;2023-12-28T02:31:37;100332.34;;;-1.24;100.00
80927;BME280;70385;44.538;18.532;2023-12-28T02:34:11;100316.94;;;-1.24;100.00
80927;BME280;70385;44.538;18.532;2023-12-28T02:36:41;100329.88;;;-1.18;100.00
80927;BME280;70385;44.538;18.532;2023-12-28T02:39:11;100318.00;;;-1.13;100.00
80927;BME280;70385;44.538;18.532;2023-12-28T02:41:43;100321.59;;;-1.03;100.00
80927;BME280;70385;44.538;18.532;2023-12-28T02:44:10;100319.94;;;-1.00;100.00
80927;BME280;70385;44.538;18.532;2023-12-28T02:46:38;100324.31;;;-0.94;100.00
80927;BME280;70385;44.538;18.532;2023-12-28T02:49:04;100333.63;;;-0.99;100.00
80927;BME280;70385;44.538;18.532;2023-12-28T02:51:32;100320.75;;;-1.01;100.00
80927;BME280;70385;44.538;18.532;2023-12-28T02:53:59;100318.22;;;-0.99;100.00
80927;BME280;70385;44.538;18.532;2023-12-28T02:56:25;100312.25;;;-0.97;100.00
80927;BME280;70385;44.538;18.532;2023-12-28T02:58:51;100309.06;;;-0.83;100.00
80927;BME280;70385;44.538;18.532;2023-12-28T03:01:19;100295.41;;;-0.81;100.00
80927;BME280;70385;44.538;18.532;2023-12-28T03:03:45;100307.44;;;-0.78;100.00
80927;BME280;70385;44.538;18.532;2023-12-28T03:06:11;100287.84;;;-0.72;100.00
80927;BME280;70385;44.538;18.532;2023-12-28T03:08:39;100281.00;;;-0.71;100.00
80927;BME280;70385;44.538;18.532;2023-12-28T03:11:06;100270.72;;;-0.71;100.00
80927;BME280;70385;44.538;18.532;2023-12-28T03:13:32;100269.97;;;-0.64;100.00
80927;BME280;70385;44.538;18.532;2023-12-28T03:15:58;100282.03;;;-0.58;100.00
80927;BME280;70385;44.538;18.532;2023-12-28T03:18:26;100275.13;;;-0.64;100.00
80927;BME280;70385;44.538;18.532;2023-12-28T03:20:52;100284.69;;;-0.54;100.00
80927;BME280;70385;44.538;18.532;2023-12-28T03:23:26;100279.56;;;-0.54;100.00
80927;BME280;70385;44.538;18.532;2023-12-28T03:25:54;100272.63;;;-0.58;100.00
80927;BME280;70385;44.538;18.532;2023-12-28T03:28:20;100268.28;;;-0.62;100.00
80927;BME280;70385;44.538;18.532;2023-12-28T03:30:47;100264.91;;;-0.58;100.00
80927;BME280;70385;44.538;18.532;2023-12-28T03:33:14;100268.19;;;-0.68;100.00
80927;BME280;70385;44.538;18.532;2023-12-28T03:35:41;100260.41;;;-0.74;100.00
80927;BME280;70385;44.538;18.532;2023-12-28T03:38:07;100258.78;;;-0.68;100.00
80927;BME280;70385;44.538;18.532;2023-12-28T03:40:34;100253.56;;;-0.74;100.00
80927;BME280;70385;44.538;18.532;2023-12-28T03:43:00;100265.56;;;-0.73;100.00
80927;BME280;70385;44.538;18.532;2023-12-28T03:45:26;100260.44;;;-0.73;100.00
80927;BME280;70385;44.538;18.532;2023-12-28T03:47:52;100255.88;;;-0.90;100.00
80927;BME280;70385;44.538;18.532;2023-12-28T03:50:19;100262.69;;;-0.93;100.00
80927;BME280;70385;44.538;18.532;2023-12-28T03:52:45;100263.50;;;-0.95;100.00
80927;BME280;70385;44.538;18.532;2023-12-28T03:55:14;100264.25;;;-1.01;100.00
80927;BME280;70385;44.538;18.532;2023-12-28T03:57:40;100262.53;;;-1.02;100.00
80927;BME280;70385;44.538;18.532;2023-12-28T04:00:08;100252.16;;;-1.08;100.00
80927;BME280;70385;44.538;18.532;2023-12-28T04:02:39;100261.66;;;-1.02;100.00
80927;BME280;70385;44.538;18.532;2023-12-28T04:05:05;100253.06;;;-1.04;100.00
80927;BME280;70385;44.538;18.532;2023-12-28T04:07:32;100255.50;;;-1.15;100.00
80927;BME280;70385;44.538;18.532;2023-12-28T04:10:02;100267.56;;;-1.08;100.00
80927;BME280;70385;44.538;18.532;2023-12-28T04:12:27;100253.81;;;-1.13;100.00
80927;BME280;70385;44.538;18.532;2023-12-28T04:14:54;100253.53;;;-1.28;100.00
80927;BME280;70385;44.538;18.532;2023-12-28T04:17:20;100262.94;;;-1.29;100.00
80927;BME280;70385;44.538;18.532;2023-12-28T04:19:46;100266.34;;;-1.30;100.00
80927;BME280;70385;44.538;18.532;2023-12-28T04:22:17;100269.78;;;-1.29;100.00
80927;BME280;70385;44.538;18.532;2023-12-28T04:24:43;100265.44;;;-1.33;100.00
80927;BME280;70385;44.538;18.532;2023-12-28T04:27:09;100263.63;;;-1.37;100.00
80927;BME280;70385;44.538;18.532;2023-12-28T04:29:38;100264.63;;;-1.31;100.00
80927;BME280;70385;44.538;18.532;2023-12-28T04:32:07;100256.06;;;-1.31;100.00
80927;BME280;70385;44.538;18.532;2023-12-28T04:34:33;100263.81;;;-1.28;100.00
80927;BME280;70385;44.538;18.532;2023-12-28T04:36:59;100282.63;;;-1.29;100.00
80927;BME280;70385;44.538;18.532;2023-12-28T04:39:25;100279.13;;;-1.34;100.00
80927;BME280;70385;44.538;18.532;2023-12-28T04:41:51;100269.72;;;-1.34;100.00
80927;BME280;70385;44.538;18.532;2023-12-28T04:44:19;100273.97;;;-1.34;100.00
80927;BME280;70385;44.538;18.532;2023-12-28T04:46:50;100269.72;;;-1.32;100.00
80927;BME280;70385;44.538;18.532;2023-12-28T04:49:16;100268.91;;;-1.31;100.00
80927;BME280;70385;44.538;18.532;2023-12-28T04:51:43;100269.84;;;-1.26;100.00
80927;BME280;70385;44.538;18.532;2023-12-28T04:54:09;100278.34;;;-1.29;100.00
80927;BME280;70385;44.538;18.532;2023-12-28T04:56:35;100274.06;;;-1.28;100.00
80927;BME280;70385;44.538;18.532;2023-12-28T04:59:03;100269.00;;;-1.25;100.00
80927;BME280;70385;44.538;18.532;2023-12-28T05:01:29;100258.84;;;-1.17;100.00
80927;BME280;70385;44.538;18.532;2023-12-28T05:03:58;100258.00;;;-1.16;100.00
80927;BME280;70385;44.538;18.532;2023-12-28T05:06:27;100265.75;;;-1.15;100.00
80927;BME280;70385;44.538;18.532;2023-12-28T05:08:58;100263.13;;;-1.16;100.00
80927;BME280;70385;44.538;18.532;2023-12-28T05:11:24;100257.22;;;-1.14;100.00
80927;BME280;70385;44.538;18.532;2023-12-28T05:13:50;100257.13;;;-1.17;100.00
80927;BME280;70385;44.538;18.532;2023-12-28T05:16:16;100264.97;;;-1.11;100.00
80927;BME280;70385;44.538;18.532;2023-12-28T05:18:43;100268.41;;;-1.10;100.00
80927;BME280;70385;44.538;18.532;2023-12-28T05:21:10;100258.91;;;-1.14;100.00
80927;BME280;70385;44.538;18.532;2023-12-28T05:23:38;100264.00;;;-1.16;100.00
80927;BME280;70385;44.538;18.532;2023-12-28T05:26:05;100276.03;;;-1.15;100.00
80927;BME280;70385;44.538;18.532;2023-12-28T05:28:32;100276.91;;;-1.14;100.00
80927;BME280;70385;44.538;18.532;2023-12-28T05:30:59;100270.97;;;-1.09;100.00
80927;BME280;70385;44.538;18.532;2023-12-28T05:33:25;100264.97;;;-1.09;100.00
80927;BME280;70385;44.538;18.532;2023-12-28T05:35:51;100264.81;;;-1.18;100.00
80927;BME280;70385;44.538;18.532;2023-12-28T05:38:19;100261.47;;;-1.14;100.00
80927;BME280;70385;44.538;18.532;2023-12-28T05:40:45;100264.13;;;-1.10;100.00
80927;BME280;70385;44.538;18.532;2023-12-28T05:43:11;100265.88;;;-1.07;100.00
80927;BME280;70385;44.538;18.532;2023-12-28T05:45:38;100263.31;;;-1.06;100.00
80927;BME280;70385;44.538;18.532;2023-12-28T05:48:04;100259.06;;;-1.05;100.00
80927;BME280;70385;44.538;18.532;2023-12-28T05:50:31;100261.56;;;-1.08;100.00
80927;BME280;70385;44.538;18.532;2023-12-28T05:52:59;100258.97;;;-1.10;100.00
80927;BME280;70385;44.538;18.532;2023-12-28T05:55:25;100269.25;;;-1.10;100.00
80927;BME280;70385;44.538;18.532;2023-12-28T05:57:51;100255.34;;;-1.21;100.00
80927;BME280;70385;44.538;18.532;2023-12-28T06:00:20;100265.78;;;-1.13;100.00
80927;BME280;70385;44.538;18.532;2023-12-28T06:02:46;100261.16;;;-1.33;100.00
80927;BME280;70385;44.538;18.532;2023-12-28T06:05:15;100276.34;;;-1.45;100.00
80927;BME280;70385;44.538;18.532;2023-12-28T06:07:42;100256.56;;;-1.50;100.00
80927;BME280;70385;44.538;18.532;2023-12-28T06:10:08;100269.50;;;-1.44;100.00
80927;BME280;70385;44.538;18.532;2023-12-28T06:12:34;100277.06;;;-1.54;100.00
80927;BME280;70385;44.538;18.532;2023-12-28T06:15:01;100271.00;;;-1.56;100.00
80927;BME280;70385;44.538;18.532;2023-12-28T06:17:28;100283.78;;;-1.59;100.00
80927;BME280;70385;44.538;18.532;2023-12-28T06:19:54;100284.78;;;-1.52;100.00
80927;BME280;70385;44.538;18.532;2023-12-28T06:22:22;100289.09;;;-1.49;100.00
80927;BME280;70385;44.538;18.532;2023-12-28T06:25:02;100292.56;;;-1.47;100.00
80927;BME280;70385;44.538;18.532;2023-12-28T06:27:29;100275.47;;;-1.45;100.00
80927;BME280;70385;44.538;18.532;2023-12-28T06:29:55;100290.78;;;-1.51;100.00
80927;BME280;70385;44.538;18.532;2023-12-28T06:32:21;100298.31;;;-1.59;100.00
80927;BME280;70385;44.538;18.532;2023-12-28T06:34:49;100287.09;;;-1.64;100.00
80927;BME280;70385;44.538;18.532;2023-12-28T06:37:16;100299.31;;;-1.52;100.00
80927;BME280;70385;44.538;18.532;2023-12-28T06:39:44;100287.38;;;-1.50;100.00
80927;BME280;70385;44.538;18.532;2023-12-28T06:42:11;100298.53;;;-1.48;100.00
80927;BME280;70385;44.538;18.532;2023-12-28T06:44:37;100304.69;;;-1.37;100.00
80927;BME280;70385;44.538;18.532;2023-12-28T06:47:05;100309.94;;;-1.33;100.00
80927;BME280;70385;44.538;18.532;2023-12-28T06:49:31;100298.16;;;-1.22;100.00
80927;BME280;70385;44.538;18.532;2023-12-28T06:51:57;100304.16;;;-1.19;100.00
80927;BME280;70385;44.538;18.532;2023-12-28T06:54:24;100312.97;;;-1.07;100.00
80927;BME280;70385;44.538;18.532;2023-12-28T06:56:50;100303.34;;;-1.17;100.00
80927;BME280;70385;44.538;18.532;2023-12-28T06:59:17;100317.22;;;-1.09;100.00
80927;BME280;70385;44.538;18.532;2023-12-28T07:01:43;100324.06;;;-1.08;100.00
80927;BME280;70385;44.538;18.532;2023-12-28T07:04:16;100313.00;;;-1.04;100.00
80927;BME280;70385;44.538;18.532;2023-12-28T07:06:43;100320.75;;;-1.02;100.00
80927;BME280;70385;44.538;18.532;2023-12-28T07:09:09;100319.16;;;-0.96;100.00
80927;BME280;70385;44.538;18.532;2023-12-28T07:11:36;100309.81;;;-0.92;100.00
80927;BME280;70385;44.538;18.532;2023-12-28T07:14:04;100315.97;;;-0.79;100.00
80927;BME280;70385;44.538;18.532;2023-12-28T07:16:34;100315.25;;;-0.74;100.00
80927;BME280;70385;44.538;18.532;2023-12-28T07:19:00;100325.47;;;-0.77;100.00
80927;BME280;70385;44.538;18.532;2023-12-28T07:21:28;100306.69;;;-0.73;100.00
80927;BME280;70385;44.538;18.532;2023-12-28T07:23:55;100315.13;;;-0.80;100.00
80927;BME280;70385;44.538;18.532;2023-12-28T07:26:22;100301.56;;;-0.71;100.00
80927;BME280;70385;44.538;18.532;2023-12-28T07:28:48;100296.41;;;-0.73;100.00
80927;BME280;70385;44.538;18.532;2023-12-28T07:31:25;100294.00;;;-0.61;100.00
80927;BME280;70385;44.538;18.532;2023-12-28T07:33:51;100303.53;;;-0.55;100.00
80927;BME280;70385;44.538;18.532;2023-12-28T07:36:18;100317.38;;;-0.45;100.00
80927;BME280;70385;44.538;18.532;2023-12-28T07:38:45;100304.47;;;-0.48;100.00
80927;BME280;70385;44.538;18.532;2023-12-28T07:41:11;100317.34;;;-0.48;100.00
80927;BME280;70385;44.538;18.532;2023-12-28T07:43:37;100311.41;;;-0.43;100.00
80927;BME280;70385;44.538;18.532;2023-12-28T07:46:04;100311.50;;;-0.38;100.00
80927;BME280;70385;44.538;18.532;2023-12-28T07:48:31;100303.81;;;-0.37;100.00
80927;BME280;70385;44.538;18.532;2023-12-28T07:50:57;100309.16;;;-0.20;100.00
80927;BME280;70385;44.538;18.532;2023-12-28T07:53:23;100292.97;;;-0.14;100.00
80927;BME280;70385;44.538;18.532;2023-12-28T07:55:49;100305.00;;;-0.13;100.00
80927;BME280;70385;44.538;18.532;2023-12-28T07:58:15;100310.03;;;-0.19;100.00
80927;BME280;70385;44.538;18.532;2023-12-28T08:00:42;100309.94;;;-0.25;100.00
80927;BME280;70385;44.538;18.532;2023-12-28T08:03:09;100309.84;;;-0.35;100.00
80927;BME280;70385;44.538;18.532;2023-12-28T08:05:38;100318.50;;;-0.26;100.00
80927;BME280;70385;44.538;18.532;2023-12-28T08:08:04;100314.38;;;-0.17;100.00
80927;BME280;70385;44.538;18.532;2023-12-28T08:10:31;100306.56;;;-0.23;100.00
80927;BME280;70385;44.538;18.532;2023-12-28T08:13:02;100325.41;;;-0.22;100.00
80927;BME280;70385;44.538;18.532;2023-12-28T08:15:29;100331.28;;;-0.33;100.00
80927;BME280;70385;44.538;18.532;2023-12-28T08:17:55;100325.41;;;-0.22;100.00
80927;BME280;70385;44.538;18.532;2023-12-28T08:20:21;100321.06;;;-0.28;100.00
80927;BME280;70385;44.538;18.532;2023-12-28T08:22:50;100320.94;;;-0.37;100.00
80927;BME280;70385;44.538;18.532;2023-12-28T08:25:21;100326.94;;;-0.37;100.00
80927;BME280;70385;44.538;18.532;2023-12-28T08:27:49;100340.00;;;-0.21;100.00
80927;BME280;70385;44.538;18.532;2023-12-28T08:30:18;100333.97;;;-0.23;100.00
80927;BME280;70385;44.538;18.532;2023-12-28T08:32:45;100332.31;;;-0.20;100.00
80927;BME280;70385;44.538;18.532;2023-12-28T08:35:12;100335.94;;;-0.07;100.00
80927;BME280;70385;44.538;18.532;2023-12-28T08:37:43;100331.66;;;-0.07;100.00
80927;BME280;70385;44.538;18.532;2023-12-28T08:40:09;100337.84;;;0.06;100.00
80927;BME280;70385;44.538;18.532;2023-12-28T08:42:42;100336.22;;;0.14;100.00
80927;BME280;70385;44.538;18.532;2023-12-28T08:45:08;100324.44;;;0.35;100.00
80927;BME280;70385;44.538;18.532;2023-12-28T08:47:37;100332.81;;;0.18;100.00
80927;BME280;70385;44.538;18.532;2023-12-28T08:50:06;100327.66;;;0.15;100.00
80927;BME280;70385;44.538;18.532;2023-12-28T08:52:35;100332.09;;;0.27;100.00
80927;BME280;70385;44.538;18.532;2023-12-28T08:55:01;100341.75;;;0.45;100.00
80927;BME280;70385;44.538;18.532;2023-12-28T08:57:30;100335.06;;;0.59;100.00
80927;BME280;70385;44.538;18.532;2023-12-28T08:59:58;100341.78;;;0.48;100.00
80927;BME280;70385;44.538;18.532;2023-12-28T09:02:51;100330.00;;;0.71;100.00
80927;BME280;70385;44.538;18.532;2023-12-28T09:05:17;100338.81;;;0.93;100.00
80927;BME280;70385;44.538;18.532;2023-12-28T09:07:44;100334.63;;;1.03;100.00
80927;BME280;70385;44.538;18.532;2023-12-28T09:10:13;100343.09;;;0.93;100.00
80927;BME280;70385;44.538;18.532;2023-12-28T09:12:41;100340.63;;;1.02;100.00
80927;BME280;70385;44.538;18.532;2023-12-28T09:15:11;100327.84;;;1.15;100.00
80927;BME280;70385;44.538;18.532;2023-12-28T09:17:39;100325.19;;;1.05;100.00
80927;BME280;70385;44.538;18.532;2023-12-28T09:20:08;100327.06;;;1.21;100.00
80927;BME280;70385;44.538;18.532;2023-12-28T09:22:34;100320.97;;;1.13;100.00
80927;BME280;70385;44.538;18.532;2023-12-28T09:25:02;100314.16;;;1.16;100.00
80927;BME280;70385;44.538;18.532;2023-12-28T09:27:36;100315.19;;;1.41;100.00
80927;BME280;70385;44.538;18.532;2023-12-28T09:30:05;100311.78;;;1.45;100.00
80927;BME280;70385;44.538;18.532;2023-12-28T09:32:32;100309.00;;;1.16;100.00
80927;BME280;70385;44.538;18.532;2023-12-28T09:35:01;100306.38;;;1.15;100.00
80927;BME280;70385;44.538;18.532;2023-12-28T09:37:29;100301.38;;;1.33;100.00
80927;BME280;70385;44.538;18.532;2023-12-28T09:39:55;100298.00;;;1.39;100.00
80927;BME280;70385;44.538;18.532;2023-12-28T09:42:26;100293.69;;;1.36;100.00
80927;BME280;70385;44.538;18.532;2023-12-28T09:44:55;100290.38;;;1.59;100.00
80927;BME280;70385;44.538;18.532;2023-12-28T09:47:24;100281.00;;;1.73;100.00
80927;BME280;70385;44.538;18.532;2023-12-28T09:50:00;100293.13;;;1.86;100.00
80927;BME280;70385;44.538;18.532;2023-12-28T09:52:37;100280.97;;;1.71;100.00
80927;BME280;70385;44.538;18.532;2023-12-28T09:55:15;100277.53;;;1.69;100.00
80927;BME280;70385;44.538;18.532;2023-12-28T09:57:42;100279.38;;;1.90;100.00
80927;BME280;70385;44.538;18.532;2023-12-28T10:00:08;100260.41;;;1.82;100.00
80927;BME280;70385;44.538;18.532;2023-12-28T10:02:44;100265.56;;;1.80;100.00
80927;BME280;70385;44.538;18.532;2023-12-28T10:05:15;100267.38;;;1.95;100.00
80927;BME280;70385;44.538;18.532;2023-12-28T10:07:45;100260.44;;;1.90;100.00
80927;BME280;70385;44.538;18.532;2023-12-28T10:10:13;100248.53;;;2.16;100.00
80927;BME280;70385;44.538;18.532;2023-12-28T10:12:39;100246.78;;;2.13;100.00
80927;BME280;70385;44.538;18.532;2023-12-28T10:15:09;100239.97;;;2.40;100.00
80927;BME280;70385;44.538;18.532;2023-12-28T10:17:35;100229.66;;;2.34;100.00
80927;BME280;70385;44.538;18.532;2023-12-28T10:20:04;100227.91;;;2.36;100.00
80927;BME280;70385;44.538;18.532;2023-12-28T10:22:41;100231.41;;;2.59;100.00
80927;BME280;70385;44.538;18.532;2023-12-28T10:25:16;100221.09;;;2.71;100.00
80927;BME280;70385;44.538;18.532;2023-12-28T10:27:46;100214.19;;;2.77;100.00
80927;BME280;70385;44.538;18.532;2023-12-28T10:30:13;100214.22;;;2.92;100.00
80927;BME280;70385;44.538;18.532;2023-12-28T10:32:56;100209.88;;;2.95;100.00
80927;BME280;70385;44.538;18.532;2023-12-28T10:35:23;100216.78;;;2.93;100.00
80927;BME280;70385;44.538;18.532;2023-12-28T10:38:00;100207.28;;;2.85;100.00
80927;BME280;70385;44.538;18.532;2023-12-28T10:40:30;100197.81;;;2.87;100.00
80927;BME280;70385;44.538;18.532;2023-12-28T10:43:06;100202.97;;;3.16;100.00
80927;BME280;70385;44.538;18.532;2023-12-28T10:45:33;100201.22;;;3.24;100.00
80927;BME280;70385;44.538;18.532;2023-12-28T10:48:11;100188.31;;;3.28;100.00
80927;BME280;70385;44.538;18.532;2023-12-28T10:50:47;100193.47;;;3.28;100.00
80927;BME280;70385;44.538;18.532;2023-12-28T10:53:38;100190.00;;;3.35;100.00
80927;BME280;70385;44.538;18.532;2023-12-28T10:56:47;100190.84;;;3.39;100.00
80927;BME280;70385;44.538;18.532;2023-12-28T11:02:11;100181.44;;;3.11;100.00
80927;BME280;70385;44.538;18.532;2023-12-28T11:04:49;100181.44;;;3.15;100.00
80927;BME280;70385;44.538;18.532;2023-12-28T11:07:20;100178.78;;;3.37;100.00
80927;BME280;70385;44.538;18.532;2023-12-28T11:09:48;100163.22;;;3.46;100.00
80927;BME280;70385;44.538;18.532;2023-12-28T11:12:16;100162.47;;;3.16;100.00
80927;BME280;70385;44.538;18.532;2023-12-28T11:14:48;100158.97;;;3.32;100.00
80927;BME280;70385;44.538;18.532;2023-12-28T11:17:19;100157.16;;;3.57;100.00
80927;BME280;70385;44.538;18.532;2023-12-28T11:19:53;100143.13;;;4.09;100.00
80927;BME280;70385;44.538;18.532;2023-12-28T11:22:27;100130.09;;;4.18;100.00
80927;BME280;70385;44.538;18.532;2023-12-28T11:24:58;100126.84;;;3.88;100.00
80927;BME280;70385;44.538;18.532;2023-12-28T11:27:24;100111.09;;;4.25;100.00
80927;BME280;70385;44.538;18.532;2023-12-28T11:29:52;100128.31;;;4.28;100.00
80927;BME280;70385;44.538;18.532;2023-12-28T11:32:22;100128.34;;;4.21;100.00
80927;BME280;70385;44.538;18.532;2023-12-28T11:34:57;100129.06;;;4.43;100.00
80927;BME280;70385;44.538;18.532;2023-12-28T11:37:30;100127.09;;;4.73;100.00
80927;BME280;70385;44.538;18.532;2023-12-28T11:40:17;100115.84;;;4.75;100.00
80927;BME280;70385;44.538;18.532;2023-12-28T11:42:53;100117.53;;;4.78;100.00
80927;BME280;70385;44.538;18.532;2023-12-28T11:45:22;100124.53;;;4.70;100.00
80927;BME280;70385;44.538;18.532;2023-12-28T11:50:37;100098.78;;;4.51;100.00
80927;BME280;70385;44.538;18.532;2023-12-28T11:53:07;100102.22;;;4.52;100.00
80927;BME280;70385;44.538;18.532;2023-12-28T11:55:33;100090.94;;;4.56;100.00
80927;BME280;70385;44.538;18.532;2023-12-28T11:58:05;100083.97;;;4.66;100.00
80927;BME280;70385;44.538;18.532;2023-12-28T12:00:37;100092.22;;;5.01;100.00
80927;BME280;70385;44.538;18.532;2023-12-28T12:03:10;100081.09;;;4.93;100.00
80927;BME280;70385;44.538;18.532;2023-12-28T12:05:37;100075.16;;;4.82;100.00
80927;BME280;70385;44.538;18.532;2023-12-28T12:08:06;100076.91;;;4.80;100.00
80927;BME280;70385;44.538;18.532;2023-12-28T12:10:40;100068.38;;;4.69;100.00
80927;BME280;70385;44.538;18.532;2023-12-28T12:13:09;100060.47;;;4.84;100.00
80927;BME280;70385;44.538;18.532;2023-12-28T12:15:41;100059.59;;;4.85;100.00
80927;BME280;70385;44.538;18.532;2023-12-28T12:18:12;100058.63;;;4.92;100.00
80927;BME280;70385;44.538;18.532;2023-12-28T12:20:41;100057.72;;;4.96;100.00
80927;BME280;70385;44.538;18.532;2023-12-28T12:23:08;100056.00;;;4.95;100.00
80927;BME280;70385;44.538;18.532;2023-12-28T12:25:37;100058.41;;;5.12;100.00
80927;BME280;70385;44.538;18.532;2023-12-28T12:28:06;100060.16;;;5.11;100.00
80927;BME280;70385;44.538;18.532;2023-12-28T12:30:32;100070.50;;;5.13;100.00
80927;BME280;70385;44.538;18.532;2023-12-28T12:32:59;100058.09;;;5.38;100.00
80927;BME280;70385;44.538;18.532;2023-12-28T12:35:27;100058.97;;;5.40;100.00
80927;BME280;70385;44.538;18.532;2023-12-28T12:37:56;100047.13;;;5.16;100.00
80927;BME280;70385;44.538;18.532;2023-12-28T12:40:22;100044.47;;;5.19;100.00
80927;BME280;70385;44.538;18.532;2023-12-28T12:42:55;100037.47;;;5.27;100.00
80927;BME280;70385;44.538;18.532;2023-12-28T12:45:21;100052.00;;;5.42;100.00